createdAt,value
2018-07-23T00:01:08.524Z,20.40
2018-07-23T00:03:36.926Z,18.27
2018-07-23T00:06:05.401Z,20.13
2018-07-23T00:08:33.779Z,18.17
2018-07-23T00:11:02.233Z,19.47
2018-07-23T00:13:30.601Z,18.30
2018-07-23T00:15:59.006Z,19.23
2018-07-23T00:18:27.407Z,19.27
2018-07-23T00:20:55.815Z,21.67
2018-07-23T00:23:24.323Z,19.53
2018-07-23T00:25:52.729Z,18.60
2018-07-23T00:28:21.154Z,18.40
2018-07-23T00:30:49.494Z,19.53
2018-07-23T00:33:17.826Z,20.90
2018-07-23T00:35:46.205Z,18.87
2018-07-23T00:38:14.555Z,19.83
2018-07-23T00:40:42.890Z,20.83
2018-07-23T00:43:11.241Z,21.17
2018-07-23T00:45:39.571Z,20.83
2018-07-23T00:48:07.903Z,21.80
2018-07-23T00:50:36.300Z,19.57
2018-07-23T00:53:04.342Z,21.50
2018-07-23T00:55:32.676Z,21.90
2018-07-23T00:58:01.039Z,21.90
2018-07-23T01:00:29.366Z,23.37
2018-07-23T01:03:01.955Z,22.87
2018-07-23T01:05:30.286Z,25.53
2018-07-23T01:07:58.649Z,23.97
2018-07-23T01:10:27.010Z,22.90
2018-07-23T01:12:55.379Z,23.17
2018-07-23T01:15:23.714Z,23.33
2018-07-23T01:17:52.061Z,25.00
2018-07-23T01:20:20.438Z,23.77
2018-07-23T01:22:48.775Z,25.47
2018-07-23T01:25:17.135Z,23.70
2018-07-23T01:27:45.456Z,22.57
2018-07-23T01:30:13.888Z,20.57
2018-07-23T01:32:42.215Z,21.43
2018-07-23T01:35:10.559Z,20.37
2018-07-23T01:37:38.930Z,20.93
2018-07-23T01:40:07.275Z,21.90
2018-07-23T01:42:35.640Z,21.83
2018-07-23T01:45:04.058Z,22.27
2018-07-23T01:47:32.408Z,21.23
2018-07-23T01:50:00.821Z,21.60
2018-07-23T01:52:29.205Z,20.30
2018-07-23T01:54:57.545Z,20.63
2018-07-23T01:57:25.940Z,22.57
2018-07-23T01:59:54.290Z,21.60
2018-07-23T02:02:22.688Z,21.17
2018-07-23T02:04:51.041Z,24.90
2018-07-23T02:07:19.401Z,26.63
2018-07-23T02:09:47.797Z,26.77
2018-07-23T02:12:16.181Z,24.17
2018-07-23T02:14:44.521Z,29.00
2018-07-23T02:17:12.937Z,26.53
2018-07-23T02:19:41.329Z,27.60
2018-07-23T02:22:09.690Z,27.87
2018-07-23T02:24:38.076Z,27.93
2018-07-23T02:27:06.481Z,28.77
2018-07-23T02:29:34.843Z,27.30
2018-07-23T02:32:03.259Z,26.80
2018-07-23T02:34:31.642Z,26.00
2018-07-23T02:36:59.993Z,26.93
2018-07-23T02:39:28.384Z,28.47
2018-07-23T02:41:56.738Z,26.90
2018-07-23T02:44:25.118Z,27.47
2018-07-23T02:46:53.514Z,27.73
2018-07-23T02:49:21.874Z,27.17
2018-07-23T02:51:50.280Z,28.17
2018-07-23T02:54:18.616Z,24.60
2018-07-23T02:56:46.978Z,23.87
2018-07-23T02:59:15.373Z,25.10
2018-07-23T03:01:43.729Z,23.30
2018-07-23T03:04:12.133Z,23.70
2018-07-23T03:06:40.478Z,22.37
2018-07-23T03:09:08.937Z,24.20
2018-07-23T03:11:37.337Z,24.73
2018-07-23T03:14:05.749Z,22.17
2018-07-23T03:16:34.170Z,23.27
2018-07-23T03:19:02.546Z,22.50
2018-07-23T03:21:30.953Z,22.17
2018-07-23T03:23:59.297Z,21.07
2018-07-23T03:26:27.653Z,24.50
2018-07-23T03:28:56.041Z,29.97
2018-07-23T03:31:24.393Z,30.80
2018-07-23T03:33:52.885Z,32.30
2018-07-23T03:36:21.226Z,32.27
2018-07-23T03:38:49.602Z,31.93
2018-07-23T03:41:17.993Z,31.40
2018-07-23T03:43:46.342Z,27.40
2018-07-23T03:46:14.695Z,23.93
2018-07-23T03:48:43.080Z,27.73
2018-07-23T03:51:11.445Z,27.50
2018-07-23T03:53:39.809Z,29.47
2018-07-23T03:56:08.213Z,30.27
2018-07-23T03:58:36.561Z,30.37
2018-07-23T04:01:04.973Z,28.10
2018-07-23T04:03:33.350Z,28.73
2018-07-23T04:06:01.773Z,27.13
2018-07-23T04:08:30.120Z,27.63
2018-07-23T04:10:58.476Z,27.47
2018-07-23T04:13:26.880Z,26.60
2018-07-23T04:15:55.233Z,25.63
2018-07-23T04:18:23.652Z,31.50
2018-07-23T04:20:52.060Z,26.60
2018-07-23T04:23:20.433Z,29.50
2018-07-23T04:25:48.897Z,27.50
2018-07-23T04:28:17.261Z,26.23
2018-07-23T04:30:45.633Z,27.73
2018-07-23T04:33:14.054Z,27.17
2018-07-23T04:35:42.400Z,29.20
2018-07-23T04:38:10.777Z,28.57
2018-07-23T04:40:39.190Z,29.97
2018-07-23T04:43:08.662Z,34.07
2018-07-23T04:45:37.025Z,30.17
2018-07-23T04:48:05.437Z,34.30
2018-07-23T04:50:33.886Z,34.73
2018-07-23T04:53:02.373Z,34.37
2018-07-23T04:55:30.785Z,37.27
2018-07-23T04:57:59.164Z,35.60
2018-07-23T05:00:27.554Z,36.50
2018-07-23T05:02:55.957Z,36.30
2018-07-23T05:05:24.313Z,38.57
2018-07-23T05:07:52.684Z,38.47
2018-07-23T05:10:21.074Z,37.97
2018-07-23T05:12:49.456Z,37.30
2018-07-23T05:15:17.825Z,35.50
2018-07-23T05:17:46.320Z,37.90
2018-07-23T05:20:14.758Z,39.80
2018-07-23T05:22:43.254Z,39.90
2018-07-23T05:25:11.657Z,37.10
2018-07-23T05:27:40.057Z,37.83
2018-07-23T05:30:08.456Z,39.03
2018-07-23T05:32:36.922Z,38.23
2018-07-23T05:35:05.508Z,34.57
2018-07-23T05:37:33.920Z,34.00
2018-07-23T05:40:02.333Z,38.57
2018-07-23T05:42:30.707Z,37.63
2018-07-23T05:44:59.161Z,41.07
2018-07-23T05:47:27.514Z,42.73
2018-07-23T05:49:55.888Z,39.90
2018-07-23T05:52:24.350Z,41.50
2018-07-23T05:54:52.821Z,42.17
2018-07-23T05:57:21.212Z,43.53
2018-07-23T05:59:50.154Z,43.17
2018-07-23T06:02:18.675Z,45.90
2018-07-23T06:04:47.077Z,70.57
2018-07-23T06:07:15.472Z,50.23
2018-07-23T06:09:43.884Z,45.50
2018-07-23T06:12:12.250Z,45.07
2018-07-23T06:14:40.613Z,44.00
2018-07-23T06:17:09.025Z,44.63
2018-07-23T06:19:37.436Z,44.20
2018-07-23T06:22:05.893Z,44.33
2018-07-23T06:24:34.392Z,45.13
2018-07-23T06:27:02.802Z,48.77
2018-07-23T06:29:31.173Z,53.03
2018-07-23T06:31:59.591Z,58.10
2018-07-23T06:34:28.102Z,41.03
2018-07-23T06:36:56.481Z,44.03
2018-07-23T06:39:24.916Z,43.73
2018-07-23T06:41:53.308Z,43.97
2018-07-23T06:44:21.668Z,41.97
2018-07-23T06:46:50.091Z,42.07
2018-07-23T06:49:18.463Z,40.00
2018-07-23T06:51:46.857Z,39.27
2018-07-23T06:54:15.277Z,40.90
2018-07-23T06:56:43.654Z,38.87
2018-07-23T06:59:12.061Z,39.37
2018-07-23T07:01:40.432Z,38.33
2018-07-23T07:04:08.827Z,39.33
2018-07-23T07:06:37.214Z,42.33
2018-07-23T07:09:07.532Z,49.47
2018-07-23T07:11:35.957Z,46.77
2018-07-23T07:14:04.353Z,40.70
2018-07-23T07:16:32.708Z,41.33
2018-07-23T07:19:01.104Z,40.83
2018-07-23T07:21:29.457Z,46.67
2018-07-23T07:23:57.896Z,46.27
2018-07-23T07:26:26.346Z,50.97
2018-07-23T07:28:54.706Z,48.40
2018-07-23T07:31:23.096Z,49.63
2018-07-23T07:33:51.544Z,51.07
2018-07-23T07:36:19.893Z,52.33
2018-07-23T07:38:48.257Z,53.00
2018-07-23T07:41:16.691Z,51.27
2018-07-23T07:43:45.015Z,48.20
2018-07-23T07:46:13.426Z,45.90
2018-07-23T07:48:41.797Z,43.87
2018-07-23T07:51:10.250Z,43.87
2018-07-23T07:53:38.694Z,42.40
2018-07-23T07:56:07.270Z,40.83
2018-07-23T07:58:35.677Z,41.87
2018-07-23T08:01:04.101Z,37.83
2018-07-23T08:03:32.460Z,39.27
2018-07-23T08:06:00.873Z,39.07
2018-07-23T08:08:29.253Z,38.97
2018-07-23T08:10:57.649Z,35.60
2018-07-23T08:13:26.048Z,34.17
2018-07-23T08:15:54.485Z,37.93
2018-07-23T08:18:22.889Z,37.93
2018-07-23T08:20:51.334Z,37.10
2018-07-23T08:23:19.723Z,32.47
2018-07-23T08:25:48.164Z,36.17
2018-07-23T08:28:16.265Z,34.40
2018-07-23T08:30:44.654Z,34.47
2018-07-23T08:33:13.141Z,29.00
2018-07-23T08:35:41.517Z,32.03
2018-07-23T08:38:09.881Z,28.80
2018-07-23T08:40:38.285Z,32.50
2018-07-23T08:43:06.848Z,29.70
2018-07-23T08:45:35.169Z,28.70
2018-07-23T08:48:03.609Z,24.90
2018-07-23T08:50:32.018Z,19.17
2018-07-23T08:53:00.381Z,20.10
2018-07-23T08:55:28.933Z,21.27
2018-07-23T08:57:57.530Z,21.73
2018-07-23T09:00:25.901Z,20.70
2018-07-23T09:02:54.534Z,23.03
2018-07-23T09:05:22.962Z,18.53
2018-07-23T09:07:51.461Z,19.87
2018-07-23T09:10:19.900Z,19.37
2018-07-23T09:12:48.300Z,19.40
2018-07-23T09:15:16.720Z,17.23
2018-07-23T09:17:45.088Z,17.47
2018-07-23T09:20:13.546Z,18.67
2018-07-23T09:22:41.917Z,18.80
2018-07-23T09:25:10.281Z,17.97
2018-07-23T09:27:38.692Z,19.03
2018-07-23T09:30:11.605Z,18.50
2018-07-23T09:32:40.009Z,17.20
2018-07-23T09:35:08.362Z,18.23
2018-07-23T09:37:36.770Z,17.10
2018-07-23T09:40:05.321Z,17.00
2018-07-23T09:42:33.821Z,17.63
2018-07-23T09:45:02.225Z,14.83
2018-07-23T09:47:30.594Z,14.73
2018-07-23T09:49:58.970Z,14.37
2018-07-23T09:52:27.376Z,15.40
2018-07-23T09:54:55.749Z,14.83
2018-07-23T09:57:24.104Z,12.97
2018-07-23T09:59:52.681Z,14.47
2018-07-23T10:02:21.038Z,14.20
2018-07-23T10:04:49.445Z,14.20
2018-07-23T10:07:17.852Z,16.67
2018-07-23T10:09:46.353Z,12.60
2018-07-23T10:12:14.754Z,12.20
2018-07-23T10:14:43.129Z,13.77
2018-07-23T10:17:11.533Z,13.50
2018-07-23T10:19:39.882Z,12.23
2018-07-23T10:22:08.297Z,12.50
2018-07-23T10:24:36.697Z,15.60
2018-07-23T10:27:05.075Z,15.17
2018-07-23T10:29:33.564Z,13.90
2018-07-23T10:32:01.898Z,12.63
2018-07-23T10:34:30.277Z,13.07
2018-07-23T10:36:58.682Z,13.67
2018-07-23T10:39:27.036Z,13.63
2018-07-23T10:41:55.409Z,14.37
2018-07-23T10:44:23.795Z,14.27
2018-07-23T10:46:52.157Z,12.60
2018-07-23T10:49:20.534Z,13.40
2018-07-23T10:51:48.981Z,11.50
2018-07-23T10:54:17.349Z,12.77
2018-07-23T10:56:45.789Z,12.20
2018-07-23T10:59:14.186Z,12.50
2018-07-23T11:01:42.548Z,13.40
2018-07-23T11:04:11.026Z,11.33
2018-07-23T11:06:39.365Z,12.10
2018-07-23T11:09:08.221Z,11.10
2018-07-23T11:11:36.876Z,11.90
2018-07-23T11:14:05.350Z,12.07
2018-07-23T11:16:33.748Z,12.73
2018-07-23T11:19:02.600Z,12.43
2018-07-23T11:21:30.992Z,13.40
2018-07-23T11:23:59.557Z,14.93
2018-07-23T11:26:27.919Z,14.03
2018-07-23T11:28:56.318Z,14.73
2018-07-23T11:31:24.686Z,15.17
2018-07-23T11:33:53.213Z,14.50
2018-07-23T11:36:21.601Z,13.87
2018-07-23T11:38:50.035Z,15.20
2018-07-23T11:41:18.474Z,13.83
2018-07-23T11:43:46.838Z,13.77
2018-07-23T11:46:24.446Z,13.83
2018-07-23T11:48:43.601Z,14.37
2018-07-23T11:51:11.965Z,13.23
2018-07-23T11:53:40.425Z,14.40
2018-07-23T11:56:08.829Z,14.20
2018-07-23T11:58:37.189Z,14.10
2018-07-23T12:01:05.626Z,16.27
2018-07-23T12:03:34.010Z,14.10
2018-07-23T12:06:02.431Z,13.60
2018-07-23T12:08:30.797Z,14.77
2018-07-23T12:10:59.210Z,13.00
2018-07-23T12:13:27.589Z,15.70
2018-07-23T12:15:55.986Z,16.23
2018-07-23T12:18:24.400Z,15.30
2018-07-23T12:20:52.809Z,14.40
2018-07-23T12:23:21.177Z,14.47
2018-07-23T12:25:49.292Z,13.10
2018-07-23T12:28:17.825Z,13.50
2018-07-23T12:30:46.248Z,13.63
2018-07-23T12:33:14.609Z,13.53
2018-07-23T12:35:42.997Z,13.97
2018-07-23T12:38:11.404Z,14.67
2018-07-23T12:40:39.773Z,15.10
2018-07-23T12:43:08.133Z,13.23
2018-07-23T12:45:36.537Z,13.27
2018-07-23T12:48:04.917Z,14.30
2018-07-23T12:50:33.313Z,12.93
2018-07-23T12:53:01.683Z,14.40
2018-07-23T12:55:30.089Z,12.70
2018-07-23T12:57:58.499Z,14.03
2018-07-23T13:00:26.881Z,13.33
2018-07-23T13:02:55.424Z,14.17
2018-07-23T13:05:26.872Z,13.23
2018-07-23T13:07:55.703Z,13.90
2018-07-23T13:10:24.110Z,24.90
2018-07-23T13:12:52.516Z,23.70
2018-07-23T13:15:20.933Z,16.30
2018-07-23T13:17:49.314Z,16.80
2018-07-23T13:20:17.710Z,15.33
2018-07-23T13:22:46.222Z,14.23
2018-07-23T13:25:14.613Z,14.03
2018-07-23T13:27:43.018Z,13.70
2018-07-23T13:30:11.426Z,15.17
2018-07-23T13:32:39.830Z,14.57
2018-07-23T13:35:08.246Z,14.50
2018-07-23T13:37:36.634Z,14.47
2018-07-23T13:40:05.200Z,14.83
2018-07-23T13:42:33.617Z,15.13
2018-07-23T13:45:01.990Z,17.40
2018-07-23T13:47:30.402Z,30.40
2018-07-23T13:49:58.880Z,18.03
2018-07-23T13:52:27.279Z,14.20
2018-07-23T13:54:55.686Z,15.73
2018-07-23T13:57:24.123Z,14.43
2018-07-23T13:59:52.610Z,13.50
2018-07-23T14:02:21.001Z,12.83
2018-07-23T14:04:49.431Z,12.77
2018-07-23T14:07:17.936Z,13.97
2018-07-23T14:09:46.341Z,14.40
2018-07-23T14:12:14.705Z,13.83
2018-07-23T14:14:43.123Z,12.60
2018-07-23T14:17:11.560Z,12.27
2018-07-23T14:19:40.042Z,18.20
2018-07-23T14:22:08.604Z,16.77
2018-07-23T14:24:36.968Z,13.43
2018-07-23T14:27:05.409Z,13.83
2018-07-23T14:29:33.793Z,12.90
2018-07-23T14:32:02.172Z,12.33
2018-07-23T14:34:30.577Z,12.97
2018-07-23T14:36:58.965Z,13.70
2018-07-23T14:39:27.357Z,15.87
2018-07-23T14:41:55.767Z,40.80
2018-07-23T14:44:24.134Z,16.73
2018-07-23T14:46:52.489Z,20.93
2018-07-23T14:49:20.908Z,19.50
2018-07-23T14:51:49.282Z,12.43
2018-07-23T14:54:17.653Z,13.43
2018-07-23T14:56:46.071Z,14.27
2018-07-23T14:59:14.452Z,15.40
2018-07-23T15:01:42.876Z,15.93
2018-07-23T15:04:11.242Z,14.87
2018-07-23T15:06:39.612Z,14.37
2018-07-23T15:09:09.320Z,12.70
2018-07-23T15:11:37.754Z,14.57
2018-07-23T15:14:06.289Z,18.13
2018-07-23T15:16:34.864Z,17.07
2018-07-23T15:19:03.193Z,13.37
2018-07-23T15:21:31.597Z,12.90
2018-07-23T15:24:00.189Z,12.70
2018-07-23T15:26:28.598Z,12.37
2018-07-23T15:28:56.988Z,14.20
2018-07-23T15:31:25.380Z,14.70
2018-07-23T15:33:53.749Z,11.33
2018-07-23T15:36:22.237Z,12.67
2018-07-23T15:38:50.300Z,12.07
2018-07-23T15:41:18.672Z,11.57
2018-07-23T15:43:47.089Z,11.13
2018-07-23T15:46:15.538Z,12.20
2018-07-23T15:48:43.846Z,11.10
2018-07-23T15:51:12.254Z,12.53
2018-07-23T15:53:40.617Z,11.60
2018-07-23T15:56:08.977Z,28.00
2018-07-23T15:58:37.397Z,13.60
2018-07-23T16:01:05.809Z,11.70
2018-07-23T16:03:34.217Z,12.67
2018-07-23T16:06:02.621Z,11.30
2018-07-23T16:08:30.981Z,11.23
2018-07-23T16:10:59.338Z,10.70
2018-07-23T16:13:27.737Z,10.80
2018-07-23T16:15:56.124Z,11.23
2018-07-23T16:18:24.530Z,11.40
2018-07-23T16:20:52.904Z,10.97
2018-07-23T16:23:21.294Z,11.20
2018-07-23T16:25:49.732Z,10.50
2018-07-23T16:28:18.117Z,10.83
2018-07-23T16:30:46.515Z,9.70
2018-07-23T16:33:14.922Z,10.33
2018-07-23T16:35:43.310Z,18.30
2018-07-23T16:38:11.732Z,18.57
2018-07-23T16:40:41.225Z,12.37
2018-07-23T16:43:09.313Z,10.43
2018-07-23T16:45:37.723Z,11.33
2018-07-23T16:48:06.227Z,10.83
2018-07-23T16:50:34.608Z,15.07
2018-07-23T16:53:02.952Z,13.90
2018-07-23T16:55:31.776Z,12.43
2018-07-23T16:57:59.844Z,10.37
2018-07-23T17:00:28.232Z,10.20
2018-07-23T17:02:56.648Z,10.20
2018-07-23T17:05:25.025Z,10.70
2018-07-23T17:07:53.381Z,11.23
2018-07-23T17:10:21.802Z,9.40
2018-07-23T17:12:50.162Z,9.60
2018-07-23T17:15:18.519Z,11.70
2018-07-23T17:17:46.938Z,15.83
2018-07-23T17:20:15.301Z,12.83
2018-07-23T17:22:43.720Z,9.90
2018-07-23T17:25:12.129Z,10.10
2018-07-23T17:27:40.493Z,8.93
2018-07-23T17:30:08.896Z,9.37
2018-07-23T17:32:37.284Z,9.93
2018-07-23T17:35:05.717Z,8.40
2018-07-23T17:37:34.078Z,10.20
2018-07-23T17:40:02.500Z,9.00
2018-07-23T17:42:30.858Z,8.90
2018-07-23T17:44:59.293Z,9.97
2018-07-23T17:47:27.632Z,9.17
2018-07-23T17:49:55.985Z,8.40
2018-07-23T17:52:24.389Z,19.20
2018-07-23T17:54:52.799Z,10.70
2018-07-23T17:57:21.205Z,10.10
2018-07-23T17:59:49.560Z,10.97
2018-07-23T18:02:18.077Z,8.73
2018-07-23T18:04:46.506Z,9.40
2018-07-23T18:07:14.931Z,8.27
2018-07-23T18:09:43.578Z,8.57
2018-07-23T18:12:11.988Z,10.40
2018-07-23T18:14:40.390Z,9.53
2018-07-23T18:17:08.773Z,8.47
2018-07-23T18:19:37.124Z,10.87
2018-07-23T18:22:05.573Z,9.17
2018-07-23T18:24:33.628Z,8.57
2018-07-23T18:27:02.089Z,8.77
2018-07-23T18:29:30.485Z,9.10
2018-07-23T18:31:58.879Z,9.13
2018-07-23T18:34:27.244Z,9.37
2018-07-23T18:36:55.636Z,11.90
2018-07-23T18:39:24.013Z,11.33
2018-07-23T18:41:52.438Z,9.23
2018-07-23T18:44:20.789Z,9.50
2018-07-23T18:46:49.152Z,10.37
2018-07-23T18:49:44.020Z,11.70
2018-07-23T18:52:12.981Z,11.30
2018-07-23T18:54:42.273Z,13.10
2018-07-23T18:57:11.017Z,13.27
2018-07-23T18:59:39.753Z,10.67
2018-07-23T19:02:09.288Z,13.30
2018-07-23T19:04:37.856Z,12.83
2018-07-23T19:07:07.049Z,11.50
2018-07-23T19:09:35.517Z,11.40
2018-07-23T19:12:04.112Z,10.10
2018-07-23T19:14:32.500Z,9.57
2018-07-23T19:17:03.508Z,10.03
2018-07-23T19:19:31.969Z,9.20
2018-07-23T19:22:00.369Z,12.57
2018-07-23T19:24:28.910Z,10.10
2018-07-23T19:26:57.603Z,11.40
2018-07-23T19:29:27.075Z,19.77
2018-07-23T19:31:55.481Z,13.30
2018-07-23T19:34:23.888Z,15.87
2018-07-23T19:36:52.270Z,10.30
2018-07-23T19:39:21.458Z,12.43
2018-07-23T19:41:49.863Z,15.63
2018-07-23T19:44:18.257Z,12.33
2018-07-23T19:46:46.686Z,12.40
2018-07-23T19:49:17.068Z,11.87
2018-07-23T19:51:45.493Z,11.67
2018-07-23T19:54:13.910Z,15.10
2018-07-23T19:56:42.341Z,36.33
2018-07-23T19:59:10.750Z,17.57
2018-07-23T20:01:39.157Z,14.57
2018-07-23T20:04:07.686Z,12.93
2018-07-23T20:06:36.061Z,11.70
2018-07-23T20:09:07.713Z,12.40
2018-07-23T20:11:41.780Z,12.03
2018-07-23T20:14:10.181Z,11.10
2018-07-23T20:16:38.565Z,13.23
2018-07-23T20:19:06.922Z,11.40
2018-07-23T20:21:36.208Z,12.50
2018-07-23T20:24:04.589Z,11.43
2018-07-23T20:26:32.960Z,10.37
2018-07-23T20:29:01.363Z,10.97
2018-07-23T20:31:29.733Z,12.13
2018-07-23T20:33:58.081Z,9.40
2018-07-23T20:36:26.496Z,9.70
2018-07-23T20:38:54.864Z,16.83
2018-07-23T20:41:23.328Z,14.73
2018-07-23T20:43:51.725Z,10.63
2018-07-23T20:46:20.094Z,9.67
2018-07-23T20:48:48.463Z,66.77
2018-07-23T20:51:16.835Z,36.03
2018-07-23T20:53:45.217Z,12.87
2018-07-23T20:56:13.582Z,9.47
2018-07-23T20:58:41.977Z,9.00
2018-07-23T21:01:10.378Z,10.80
2018-07-23T21:03:38.810Z,10.70
2018-07-23T21:06:07.240Z,58.80
2018-07-23T21:08:35.593Z,41.60
2018-07-23T21:11:04.000Z,12.73
2018-07-23T21:13:33.484Z,10.70
2018-07-23T21:16:01.865Z,10.67
2018-07-23T21:18:30.296Z,9.77
2018-07-23T21:20:58.693Z,10.97
2018-07-23T21:23:27.089Z,11.33
2018-07-23T21:25:55.446Z,10.03
2018-07-23T21:28:23.872Z,9.77
2018-07-23T21:30:52.236Z,10.20
2018-07-23T21:33:20.624Z,10.20
2018-07-23T21:35:49.024Z,10.07
2018-07-23T21:38:17.411Z,10.03
2018-07-23T21:40:45.801Z,11.03
2018-07-23T21:43:14.184Z,26.27
2018-07-23T21:45:42.548Z,77.50
2018-07-23T21:48:10.931Z,17.13
2018-07-23T21:50:39.348Z,13.50
2018-07-23T21:53:07.720Z,13.93
2018-07-23T21:55:36.164Z,11.63
2018-07-23T21:58:04.541Z,11.73
2018-07-23T22:00:34.505Z,11.67
2018-07-23T22:03:02.944Z,11.83
2018-07-23T22:05:31.389Z,10.30
2018-07-23T22:07:59.766Z,9.97
2018-07-23T22:10:28.333Z,10.30
2018-07-23T22:12:56.753Z,11.30
2018-07-23T22:15:25.076Z,10.53
2018-07-23T22:17:53.459Z,11.50
2018-07-23T22:20:21.833Z,10.67
2018-07-23T22:22:50.260Z,10.83
2018-07-23T22:25:18.676Z,11.00
2018-07-23T22:27:47.024Z,10.30
2018-07-23T22:30:15.486Z,11.37
2018-07-23T22:32:43.845Z,12.37
2018-07-23T22:35:12.218Z,11.50
2018-07-23T22:37:40.636Z,11.73
2018-07-23T22:40:08.993Z,12.20
2018-07-23T22:42:37.391Z,12.27
2018-07-23T22:45:05.992Z,11.97
2018-07-23T22:47:34.381Z,11.43
2018-07-23T22:50:02.796Z,12.03
2018-07-23T22:52:31.217Z,11.60
2018-07-23T22:54:59.576Z,12.70
2018-07-23T23:00:01.655Z,12.57
2018-07-23T23:02:30.030Z,11.67
2018-07-23T23:04:58.404Z,12.93
2018-07-23T23:07:26.825Z,11.83
2018-07-23T23:09:55.213Z,13.10
2018-07-23T23:12:23.592Z,12.50
2018-07-23T23:14:52.020Z,12.80
2018-07-23T23:17:20.405Z,12.63
2018-07-23T23:19:48.774Z,12.23
2018-07-23T23:22:17.168Z,12.37
2018-07-23T23:24:45.633Z,12.67
2018-07-23T23:27:14.013Z,12.80
2018-07-23T23:29:42.388Z,12.50
2018-07-23T23:32:11.078Z,12.20
2018-07-23T23:34:39.479Z,12.63
2018-07-23T23:37:07.837Z,13.07
2018-07-23T23:39:36.208Z,13.13
2018-07-23T23:42:04.617Z,12.53
2018-07-23T23:44:32.977Z,14.30
2018-07-23T23:47:01.369Z,12.60
2018-07-23T23:49:29.730Z,14.60
2018-07-23T23:51:58.128Z,13.40
2018-07-23T23:54:26.525Z,13.60
2018-07-23T23:56:54.921Z,13.30
2018-07-23T23:59:23.281Z,14.40
